sensor_id;sensor_type;location;lat;lon;timestamp;temperature;humidity
55365;DHT22;41245;45.384;20.390;2022-07-23T00:00:54;640.80;128.00
55365;DHT22;41245;45.384;20.390;2022-07-23T00:03:20;640.70;128.00
55365;DHT22;41245;45.384;20.390;2022-07-23T00:05:45;640.70;128.00
55365;DHT22;41245;45.384;20.390;2022-07-23T00:08:11;640.70;128.00
55365;DHT22;41245;45.384;20.390;2022-07-23T00:10:37;640.70;128.00
55365;DHT22;41245;45.384;20.390;2022-07-23T00:13:03;640.70;128.00
55365;DHT22;41245;45.384;20.390;2022-07-23T00:15:29;640.80;128.00
55365;DHT22;41245;45.384;20.390;2022-07-23T00:17:55;640.80;128.00
55365;DHT22;41245;45.384;20.390;2022-07-23T00:20:21;640.70;128.00
55365;DHT22;41245;45.384;20.390;2022-07-23T00:22:55;640.60;128.00
55365;DHT22;41245;45.384;20.390;2022-07-23T00:25:22;640.40;128.00
55365;DHT22;41245;45.384;20.390;2022-07-23T00:27:48;640.40;128.00
55365;DHT22;41245;45.384;20.390;2022-07-23T00:30:14;640.40;128.00
55365;DHT22;41245;45.384;20.390;2022-07-23T00:35:13;640.30;128.00
55365;DHT22;41245;45.384;20.390;2022-07-23T00:37:39;640.20;128.00
55365;DHT22;41245;45.384;20.390;2022-07-23T00:40:05;640.10;128.00
55365;DHT22;41245;45.384;20.390;2022-07-23T00:42:32;615.30;128.00
55365;DHT22;41245;45.384;20.390;2022-07-23T00:44:58;615.30;128.00
55365;DHT22;41245;45.384;20.390;2022-07-23T00:47:24;640.00;128.00
55365;DHT22;41245;45.384;20.390;2022-07-23T00:49:49;615.30;128.00
55365;DHT22;41245;45.384;20.390;2022-07-23T00:52:15;615.30;128.00
55365;DHT22;41245;45.384;20.390;2022-07-23T00:54:41;615.30;128.00
55365;DHT22;41245;45.384;20.390;2022-07-23T00:57:07;615.30;128.00
55365;DHT22;41245;45.384;20.390;2022-07-23T00:59:34;615.20;128.00
55365;DHT22;41245;45.384;20.390;2022-07-23T01:01:59;615.00;128.00
55365;DHT22;41245;45.384;20.390;2022-07-23T01:04:25;615.10;128.00
55365;DHT22;41245;45.384;20.390;2022-07-23T01:06:51;615.00;128.00
55365;DHT22;41245;45.384;20.390;2022-07-23T01:09:17;614.90;128.00
55365;DHT22;41245;45.384;20.390;2022-07-23T01:11:43;614.90;128.00
55365;DHT22;41245;45.384;20.390;2022-07-23T01:14:19;614.90;128.00
55365;DHT22;41245;45.384;20.390;2022-07-23T01:16:46;614.90;128.00
55365;DHT22;41245;45.384;20.390;2022-07-23T01:19:13;614.90;128.00
55365;DHT22;41245;45.384;20.390;2022-07-23T01:21:48;614.80;128.00
55365;DHT22;41245;45.384;20.390;2022-07-23T01:24:14;614.80;128.00
55365;DHT22;41245;45.384;20.390;2022-07-23T01:26:43;614.80;128.00
55365;DHT22;41245;45.384;20.390;2022-07-23T01:29:10;614.80;128.00
55365;DHT22;41245;45.384;20.390;2022-07-23T01:31:36;614.70;128.00
55365;DHT22;41245;45.384;20.390;2022-07-23T01:34:01;614.80;128.00
55365;DHT22;41245;45.384;20.390;2022-07-23T01:36:27;614.90;128.00
55365;DHT22;41245;45.384;20.390;2022-07-23T01:38:54;614.90;128.00
55365;DHT22;41245;45.384;20.390;2022-07-23T01:41:20;615.00;128.00
55365;DHT22;41245;45.384;20.390;2022-07-23T01:43:46;615.00;128.00
55365;DHT22;41245;45.384;20.390;2022-07-23T01:46:12;615.00;128.00
55365;DHT22;41245;45.384;20.390;2022-07-23T01:48:37;615.00;128.00
55365;DHT22;41245;45.384;20.390;2022-07-23T01:51:03;615.00;128.00
55365;DHT22;41245;45.384;20.390;2022-07-23T01:53:29;615.00;128.00
55365;DHT22;41245;45.384;20.390;2022-07-23T01:55:58;615.00;128.00
55365;DHT22;41245;45.384;20.390;2022-07-23T01:58:25;615.00;128.00
55365;DHT22;41245;45.384;20.390;2022-07-23T02:00:51;615.00;128.00
55365;DHT22;41245;45.384;20.390;2022-07-23T02:03:17;614.80;128.00
55365;DHT22;41245;45.384;20.390;2022-07-23T02:05:42;614.80;128.00
55365;DHT22;41245;45.384;20.390;2022-07-23T02:08:08;614.70;128.00
55365;DHT22;41245;45.384;20.390;2022-07-23T02:10:34;614.70;128.00
55365;DHT22;41245;45.384;20.390;2022-07-23T02:13:00;614.70;128.00
55365;DHT22;41245;45.384;20.390;2022-07-23T02:15:26;614.70;128.00
55365;DHT22;41245;45.384;20.390;2022-07-23T02:17:52;614.70;128.00
55365;DHT22;41245;45.384;20.390;2022-07-23T02:20:18;614.70;128.00
55365;DHT22;41245;45.384;20.390;2022-07-23T02:22:44;614.70;128.00
55365;DHT22;41245;45.384;20.390;2022-07-23T02:25:09;614.70;128.00
55365;DHT22;41245;45.384;20.390;2022-07-23T02:27:36;614.70;128.00
55365;DHT22;41245;45.384;20.390;2022-07-23T02:30:02;614.70;128.00
55365;DHT22;41245;45.384;20.390;2022-07-23T02:32:28;614.70;128.00
55365;DHT22;41245;45.384;20.390;2022-07-23T02:34:54;614.70;128.00
55365;DHT22;41245;45.384;20.390;2022-07-23T02:37:20;614.70;128.00
55365;DHT22;41245;45.384;20.390;2022-07-23T02:39:45;614.70;128.00
55365;DHT22;41245;45.384;20.390;2022-07-23T02:42:14;614.70;128.00
55365;DHT22;41245;45.384;20.390;2022-07-23T02:44:39;614.60;128.00
55365;DHT22;41245;45.384;20.390;2022-07-23T02:47:05;614.50;128.00
55365;DHT22;41245;45.384;20.390;2022-07-23T02:49:31;614.50;128.00
55365;DHT22;41245;45.384;20.390;2022-07-23T02:51:57;614.40;128.00
55365;DHT22;41245;45.384;20.390;2022-07-23T02:54:23;614.40;128.00
55365;DHT22;41245;45.384;20.390;2022-07-23T02:56:48;614.40;128.00
55365;DHT22;41245;45.384;20.390;2022-07-23T02:59:16;614.40;128.00
55365;DHT22;41245;45.384;20.390;2022-07-23T03:01:43;614.40;128.00
55365;DHT22;41245;45.384;20.390;2022-07-23T03:04:09;614.40;128.00
55365;DHT22;41245;45.384;20.390;2022-07-23T03:06:36;614.40;128.00
55365;DHT22;41245;45.384;20.390;2022-07-23T03:09:02;589.70;128.00
55365;DHT22;41245;45.384;20.390;2022-07-23T03:11:28;589.70;128.00
55365;DHT22;41245;45.384;20.390;2022-07-23T03:13:53;589.60;128.00
55365;DHT22;41245;45.384;20.390;2022-07-23T03:16:19;589.60;128.00
55365;DHT22;41245;45.384;20.390;2022-07-23T03:18:45;589.60;128.00
55365;DHT22;41245;45.384;20.390;2022-07-23T03:21:10;589.70;128.00
55365;DHT22;41245;45.384;20.390;2022-07-23T03:23:36;614.40;128.00
55365;DHT22;41245;45.384;20.390;2022-07-23T03:26:03;614.50;128.00
55365;DHT22;41245;45.384;20.390;2022-07-23T03:28:29;614.60;128.00
55365;DHT22;41245;45.384;20.390;2022-07-23T03:30:54;614.70;128.00
55365;DHT22;41245;45.384;20.390;2022-07-23T03:33:20;614.80;128.00
55365;DHT22;41245;45.384;20.390;2022-07-23T03:35:47;614.80;128.00
55365;DHT22;41245;45.384;20.390;2022-07-23T03:38:14;614.90;128.00
55365;DHT22;41245;45.384;20.390;2022-07-23T03:40:40;614.90;128.00
55365;DHT22;41245;45.384;20.390;2022-07-23T03:43:05;614.90;128.00
55365;DHT22;41245;45.384;20.390;2022-07-23T03:45:31;615.00;128.00
55365;DHT22;41245;45.384;20.390;2022-07-23T03:47:57;615.10;128.00
55365;DHT22;41245;45.384;20.390;2022-07-23T03:50:23;615.10;128.00
55365;DHT22;41245;45.384;20.390;2022-07-23T03:52:49;615.20;128.00
55365;DHT22;41245;45.384;20.390;2022-07-23T03:55:15;615.30;128.00
55365;DHT22;41245;45.384;20.390;2022-07-23T03:57:41;640.00;128.00
55365;DHT22;41245;45.384;20.390;2022-07-23T04:00:08;640.40;128.00
55365;DHT22;41245;45.384;20.390;2022-07-23T04:02:37;666.00;153.60
55365;DHT22;41245;45.384;20.390;2022-07-23T04:07:29;717.20;179.20
55365;DHT22;41245;45.384;20.390;2022-07-23T04:09:55;742.70;204.80
55365;DHT22;41245;45.384;20.390;2022-07-23T04:12:21;768.00;204.80
55365;DHT22;41245;45.384;20.390;2022-07-23T04:14:47;793.60;230.40
55365;DHT22;41245;45.384;20.390;2022-07-23T04:17:13;819.20;230.40
55365;DHT22;41245;45.384;20.390;2022-07-23T04:19:39;820.10;230.40
55365;DHT22;41245;45.384;20.390;2022-07-23T05:18:13;947.50;742.40
55365;DHT22;41245;45.384;20.390;2022-07-23T05:20:38;947.70;870.40
55365;DHT22;41245;45.384;20.390;2022-07-23T05:23:04;972.90;691.20
55365;DHT22;41245;45.384;20.390;2022-07-23T05:25:30;973.20;896.00
55365;DHT22;41245;45.384;20.390;2022-07-23T05:27:56;973.60;921.60
55365;DHT22;41245;45.384;20.390;2022-07-23T05:30:22;973.70;307.20
55365;DHT22;41245;45.384;20.390;2022-07-23T05:32:47;998.70;332.80
55365;DHT22;41245;45.384;20.390;2022-07-23T05:35:13;1024.60;332.80
55365;DHT22;41245;45.384;20.390;2022-07-23T05:37:39;1024.50;332.80
55365;DHT22;41245;45.384;20.390;2022-07-23T05:40:07;1024.90;332.80
55365;DHT22;41245;45.384;20.390;2022-07-23T05:42:37;1050.10;358.40
55365;DHT22;41245;45.384;20.390;2022-07-23T05:45:04;1050.40;358.40
55365;DHT22;41245;45.384;20.390;2022-07-23T05:47:45;1050.30;358.40
55365;DHT22;41245;45.384;20.390;2022-07-23T05:50:12;1050.20;358.40
55365;DHT22;41245;45.384;20.390;2022-07-23T05:52:38;1050.10;358.40
55365;DHT22;41245;45.384;20.390;2022-07-23T05:55:05;1050.20;358.40
55365;DHT22;41245;45.384;20.390;2022-07-23T05:57:31;1050.40;358.40
55365;DHT22;41245;45.384;20.390;2022-07-23T05:59:57;1076.00;358.40
55365;DHT22;41245;45.384;20.390;2022-07-23T06:02:23;1126.70;409.60
55365;DHT22;41245;45.384;20.390;2022-07-23T06:04:49;1152.60;409.60
55365;DHT22;41245;45.384;20.390;2022-07-23T06:14:33;1229.60;460.80
55365;DHT22;41245;45.384;20.390;2022-07-23T06:29:10;1152.40;409.60
55365;DHT22;41245;45.384;20.390;2022-07-23T06:46:14;921.80;281.60
55365;DHT22;41245;45.384;20.390;2022-07-23T06:48:39;921.60;281.60
55365;DHT22;41245;45.384;20.390;2022-07-23T06:51:05;896.40;256.00
55365;DHT22;41245;45.384;20.390;2022-07-23T06:53:31;896.20;256.00
55365;DHT22;41245;45.384;20.390;2022-07-23T06:55:57;896.00;256.00
55365;DHT22;41245;45.384;20.390;2022-07-23T06:58:22;871.10;256.00
55365;DHT22;41245;45.384;20.390;2022-07-23T07:00:48;871.00;256.00
55365;DHT22;41245;45.384;20.390;2022-07-23T07:03:14;870.80;256.00
55365;DHT22;41245;45.384;20.390;2022-07-23T07:05:39;870.70;256.00
55365;DHT22;41245;45.384;20.390;2022-07-23T07:08:05;870.50;256.00
55365;DHT22;41245;45.384;20.390;2022-07-23T07:10:32;870.40;256.00
55365;DHT22;41245;45.384;20.390;2022-07-23T07:12:57;870.40;256.00
55365;DHT22;41245;45.384;20.390;2022-07-23T07:15:23;870.40;256.00
55365;DHT22;41245;45.384;20.390;2022-07-23T07:17:49;870.40;256.00
55365;DHT22;41245;45.384;20.390;2022-07-23T07:20:15;870.40;256.00
55365;DHT22;41245;45.384;20.390;2022-07-23T07:22:40;870.40;256.00
55365;DHT22;41245;45.384;20.390;2022-07-23T07:25:07;870.40;256.00
55365;DHT22;41245;45.384;20.390;2022-07-23T07:27:33;870.40;256.00
55365;DHT22;41245;45.384;20.390;2022-07-23T07:29:59;870.40;256.00
55365;DHT22;41245;45.384;20.390;2022-07-23T07:32:24;870.40;256.00
55365;DHT22;41245;45.384;20.390;2022-07-23T07:34:50;870.50;256.00
55365;DHT22;41245;45.384;20.390;2022-07-23T07:37:16;870.50;256.00
55365;DHT22;41245;45.384;20.390;2022-07-23T07:39:42;870.70;256.00
55365;DHT22;41245;45.384;20.390;2022-07-23T07:42:08;870.60;256.00
55365;DHT22;41245;45.384;20.390;2022-07-23T07:44:34;870.60;256.00
55365;DHT22;41245;45.384;20.390;2022-07-23T07:47:00;870.70;256.00
55365;DHT22;41245;45.384;20.390;2022-07-23T07:49:25;870.70;256.00
55365;DHT22;41245;45.384;20.390;2022-07-23T07:51:51;870.70;256.00
55365;DHT22;41245;45.384;20.390;2022-07-23T07:54:17;870.70;256.00
55365;DHT22;41245;45.384;20.390;2022-07-23T07:56:43;870.90;256.00
55365;DHT22;41245;45.384;20.390;2022-07-23T07:59:08;870.90;256.00
55365;DHT22;41245;45.384;20.390;2022-07-23T08:01:34;871.00;256.00
55365;DHT22;41245;45.384;20.390;2022-07-23T08:04:00;871.00;256.00
55365;DHT22;41245;45.384;20.390;2022-07-23T08:06:25;871.10;256.00
55365;DHT22;41245;45.384;20.390;2022-07-23T08:08:51;871.00;256.00
55365;DHT22;41245;45.384;20.390;2022-07-23T08:11:17;871.10;256.00
55365;DHT22;41245;45.384;20.390;2022-07-23T08:13:42;871.10;256.00
55365;DHT22;41245;45.384;20.390;2022-07-23T08:16:10;871.10;256.00
55365;DHT22;41245;45.384;20.390;2022-07-23T08:18:36;871.30;256.00
55365;DHT22;41245;45.384;20.390;2022-07-23T08:21:02;871.30;256.00
55365;DHT22;41245;45.384;20.390;2022-07-23T08:23:29;871.30;256.00
55365;DHT22;41245;45.384;20.390;2022-07-23T08:25:55;896.00;256.00
55365;DHT22;41245;45.384;20.390;2022-07-23T08:28:22;896.00;256.00
55365;DHT22;41245;45.384;20.390;2022-07-23T08:30:48;896.10;256.00
55365;DHT22;41245;45.384;20.390;2022-07-23T08:33:16;896.10;256.00
55365;DHT22;41245;45.384;20.390;2022-07-23T08:35:45;896.30;256.00
55365;DHT22;41245;45.384;20.390;2022-07-23T08:38:14;896.30;256.00
55365;DHT22;41245;45.384;20.390;2022-07-23T08:40:42;896.40;256.00
55365;DHT22;41245;45.384;20.390;2022-07-23T08:43:09;896.70;256.00
55365;DHT22;41245;45.384;20.390;2022-07-23T08:45:43;896.90;256.00
55365;DHT22;41245;45.384;20.390;2022-07-23T08:48:18;921.70;281.60
55365;DHT22;41245;45.384;20.390;2022-07-23T08:50:49;921.70;281.60
55365;DHT22;41245;45.384;20.390;2022-07-23T08:53:17;921.90;281.60
55365;DHT22;41245;45.384;20.390;2022-07-23T08:55:47;921.90;281.60
55365;DHT22;41245;45.384;20.390;2022-07-23T08:58:14;921.90;281.60
55365;DHT22;41245;45.384;20.390;2022-07-23T09:00:40;921.80;281.60
55365;DHT22;41245;45.384;20.390;2022-07-23T09:03:06;922.10;281.60
55365;DHT22;41245;45.384;20.390;2022-07-23T09:05:32;922.10;281.60
55365;DHT22;41245;45.384;20.390;2022-07-23T09:08:15;922.10;281.60
55365;DHT22;41245;45.384;20.390;2022-07-23T09:10:55;922.20;281.60
55365;DHT22;41245;45.384;20.390;2022-07-23T09:13:39;922.40;281.60
55365;DHT22;41245;45.384;20.390;2022-07-23T09:16:14;922.40;281.60
55365;DHT22;41245;45.384;20.390;2022-07-23T09:18:44;922.50;281.60
55365;DHT22;41245;45.384;20.390;2022-07-23T09:23:45;947.20;281.60
55365;DHT22;41245;45.384;20.390;2022-07-23T09:26:25;947.40;281.60
55365;DHT22;41245;45.384;20.390;2022-07-23T09:29:04;947.50;281.60
55365;DHT22;41245;45.384;20.390;2022-07-23T09:31:54;947.50;281.60
55365;DHT22;41245;45.384;20.390;2022-07-23T09:34:24;947.60;281.60
55365;DHT22;41245;45.384;20.390;2022-07-23T09:36:55;947.60;281.60
55365;DHT22;41245;45.384;20.390;2022-07-23T09:39:30;947.70;281.60
55365;DHT22;41245;45.384;20.390;2022-07-23T09:41:56;947.70;281.60
55365;DHT22;41245;45.384;20.390;2022-07-23T09:44:22;947.70;281.60
55365;DHT22;41245;45.384;20.390;2022-07-23T09:46:50;947.70;281.60
55365;DHT22;41245;45.384;20.390;2022-07-23T09:49:21;947.80;281.60
55365;DHT22;41245;45.384;20.390;2022-07-23T09:51:56;947.80;281.60
55365;DHT22;41245;45.384;20.390;2022-07-23T09:54:25;948.00;281.60
55365;DHT22;41245;45.384;20.390;2022-07-23T09:56:52;947.80;281.60
55365;DHT22;41245;45.384;20.390;2022-07-23T09:59:18;948.10;281.60
55365;DHT22;41245;45.384;20.390;2022-07-23T10:01:47;972.80;307.20
55365;DHT22;41245;45.384;20.390;2022-07-23T10:04:14;972.80;307.20
55365;DHT22;41245;45.384;20.390;2022-07-23T10:06:40;972.80;307.20
55365;DHT22;41245;45.384;20.390;2022-07-23T10:09:08;972.90;307.20
55365;DHT22;41245;45.384;20.390;2022-07-23T10:11:37;972.90;307.20
55365;DHT22;41245;45.384;20.390;2022-07-23T10:14:04;973.10;307.20
55365;DHT22;41245;45.384;20.390;2022-07-23T10:16:31;973.10;307.20
55365;DHT22;41245;45.384;20.390;2022-07-23T10:18:57;973.10;307.20
55365;DHT22;41245;45.384;20.390;2022-07-23T10:21:48;973.10;307.20
55365;DHT22;41245;45.384;20.390;2022-07-23T10:32:11;973.30;307.20
55365;DHT22;41245;45.384;20.390;2022-07-23T10:37:22;973.20;307.20
55365;DHT22;41245;45.384;20.390;2022-07-23T10:42:36;973.30;307.20
55365;DHT22;41245;45.384;20.390;2022-07-23T10:47:50;973.40;307.20
55365;DHT22;41245;45.384;20.390;2022-07-23T10:50:27;973.40;307.20
55365;DHT22;41245;45.384;20.390;2022-07-23T10:53:16;973.50;307.20
55365;DHT22;41245;45.384;20.390;2022-07-23T10:55:49;973.60;307.20
55365;DHT22;41245;45.384;20.390;2022-07-23T10:58:20;973.60;307.20
55365;DHT22;41245;45.384;20.390;2022-07-23T11:00:46;973.50;307.20
55365;DHT22;41245;45.384;20.390;2022-07-23T11:03:33;973.50;307.20
55365;DHT22;41245;45.384;20.390;2022-07-23T11:06:02;973.40;307.20
55365;DHT22;41245;45.384;20.390;2022-07-23T11:08:28;973.50;307.20
55365;DHT22;41245;45.384;20.390;2022-07-23T11:13:42;973.60;307.20
55365;DHT22;41245;45.384;20.390;2022-07-23T11:16:27;973.60;307.20
55365;DHT22;41245;45.384;20.390;2022-07-23T11:18:58;973.60;307.20
55365;DHT22;41245;45.384;20.390;2022-07-23T11:24:09;973.60;307.20
55365;DHT22;41245;45.384;20.390;2022-07-23T11:29:40;973.50;307.20
55365;DHT22;41245;45.384;20.390;2022-07-23T11:32:06;973.50;307.20
55365;DHT22;41245;45.384;20.390;2022-07-23T11:34:39;973.50;307.20
55365;DHT22;41245;45.384;20.390;2022-07-23T11:37:08;973.40;307.20
55365;DHT22;41245;45.384;20.390;2022-07-23T11:39:34;973.60;307.20
55365;DHT22;41245;45.384;20.390;2022-07-23T11:42:02;973.60;307.20
55365;DHT22;41245;45.384;20.390;2022-07-23T11:44:39;973.60;307.20
55365;DHT22;41245;45.384;20.390;2022-07-23T11:47:07;973.60;307.20
55365;DHT22;41245;45.384;20.390;2022-07-23T11:49:34;973.50;307.20
55365;DHT22;41245;45.384;20.390;2022-07-23T11:52:10;973.60;307.20
55365;DHT22;41245;45.384;20.390;2022-07-23T11:54:56;973.70;307.20
55365;DHT22;41245;45.384;20.390;2022-07-23T11:57:30;998.40;332.80
55365;DHT22;41245;45.384;20.390;2022-07-23T12:00:04;998.50;332.80
55365;DHT22;41245;45.384;20.390;2022-07-23T12:02:30;998.40;332.80
55365;DHT22;41245;45.384;20.390;2022-07-23T12:04:56;973.70;307.20
55365;DHT22;41245;45.384;20.390;2022-07-23T12:09:54;973.70;307.20
55365;DHT22;41245;45.384;20.390;2022-07-23T12:12:20;998.40;332.80
55365;DHT22;41245;45.384;20.390;2022-07-23T12:14:57;998.50;332.80
55365;DHT22;41245;45.384;20.390;2022-07-23T12:17:32;998.50;332.80
55365;DHT22;41245;45.384;20.390;2022-07-23T12:19:59;998.50;332.80
55365;DHT22;41245;45.384;20.390;2022-07-23T12:25:10;998.60;332.80
55365;DHT22;41245;45.384;20.390;2022-07-23T12:27:36;998.60;332.80
55365;DHT22;41245;45.384;20.390;2022-07-23T12:33:12;998.60;332.80
55365;DHT22;41245;45.384;20.390;2022-07-23T12:35:48;998.60;332.80
55365;DHT22;41245;45.384;20.390;2022-07-23T12:38:19;998.60;332.80
55365;DHT22;41245;45.384;20.390;2022-07-23T12:40:50;998.60;332.80
55365;DHT22;41245;45.384;20.390;2022-07-23T12:43:23;998.70;332.80
55365;DHT22;41245;45.384;20.390;2022-07-23T12:50:49;998.70;332.80
55365;DHT22;41245;45.384;20.390;2022-07-23T12:53:25;999.00;332.80
55365;DHT22;41245;45.384;20.390;2022-07-23T12:56:03;998.80;332.80
55365;DHT22;41245;45.384;20.390;2022-07-23T12:58:40;998.80;332.80
55365;DHT22;41245;45.384;20.390;2022-07-23T13:01:07;998.80;332.80
55365;DHT22;41245;45.384;20.390;2022-07-23T13:03:41;998.80;332.80
55365;DHT22;41245;45.384;20.390;2022-07-23T13:06:10;998.70;332.80
55365;DHT22;41245;45.384;20.390;2022-07-23T13:08:38;998.70;332.80
55365;DHT22;41245;45.384;20.390;2022-07-23T13:11:05;998.70;332.80
55365;DHT22;41245;45.384;20.390;2022-07-23T13:13:33;998.70;332.80
55365;DHT22;41245;45.384;20.390;2022-07-23T13:15:59;998.70;332.80
55365;DHT22;41245;45.384;20.390;2022-07-23T13:18:26;998.70;332.80
55365;DHT22;41245;45.384;20.390;2022-07-23T13:20:52;998.70;332.80
55365;DHT22;41245;45.384;20.390;2022-07-23T13:23:20;998.80;332.80
55365;DHT22;41245;45.384;20.390;2022-07-23T13:25:46;998.70;332.80
55365;DHT22;41245;45.384;20.390;2022-07-23T13:28:13;998.80;332.80
55365;DHT22;41245;45.384;20.390;2022-07-23T13:30:40;998.80;332.80
55365;DHT22;41245;45.384;20.390;2022-07-23T13:33:07;998.80;332.80
55365;DHT22;41245;45.384;20.390;2022-07-23T13:35:34;998.70;332.80
55365;DHT22;41245;45.384;20.390;2022-07-23T13:38:01;998.80;332.80
55365;DHT22;41245;45.384;20.390;2022-07-23T13:40:27;998.70;332.80
55365;DHT22;41245;45.384;20.390;2022-07-23T13:42:53;998.70;332.80
55365;DHT22;41245;45.384;20.390;2022-07-23T13:45:19;998.70;332.80
55365;DHT22;41245;45.384;20.390;2022-07-23T13:47:45;998.70;332.80
55365;DHT22;41245;45.384;20.390;2022-07-23T13:50:11;998.70;332.80
55365;DHT22;41245;45.384;20.390;2022-07-23T13:52:37;998.70;332.80
55365;DHT22;41245;45.384;20.390;2022-07-23T13:55:04;998.60;332.80
55365;DHT22;41245;45.384;20.390;2022-07-23T13:57:31;998.60;332.80
55365;DHT22;41245;45.384;20.390;2022-07-23T13:59:57;998.60;332.80
55365;DHT22;41245;45.384;20.390;2022-07-23T14:02:23;998.60;332.80
55365;DHT22;41245;45.384;20.390;2022-07-23T14:04:49;998.50;332.80
55365;DHT22;41245;45.384;20.390;2022-07-23T14:07:16;998.50;332.80
55365;DHT22;41245;45.384;20.390;2022-07-23T14:09:42;998.50;332.80
55365;DHT22;41245;45.384;20.390;2022-07-23T14:12:08;998.50;332.80
55365;DHT22;41245;45.384;20.390;2022-07-23T14:14:34;998.50;332.80
55365;DHT22;41245;45.384;20.390;2022-07-23T14:17:00;998.50;332.80
55365;DHT22;41245;45.384;20.390;2022-07-23T14:19:26;998.50;332.80
55365;DHT22;41245;45.384;20.390;2022-07-23T14:21:52;998.50;332.80
55365;DHT22;41245;45.384;20.390;2022-07-23T14:24:19;998.50;332.80
55365;DHT22;41245;45.384;20.390;2022-07-23T14:26:45;998.40;332.80
55365;DHT22;41245;45.384;20.390;2022-07-23T14:29:11;973.70;307.20
55365;DHT22;41245;45.384;20.390;2022-07-23T14:31:37;973.70;307.20
55365;DHT22;41245;45.384;20.390;2022-07-23T14:34:03;973.70;307.20
55365;DHT22;41245;45.384;20.390;2022-07-23T14:36:29;973.70;307.20
55365;DHT22;41245;45.384;20.390;2022-07-23T14:38:55;973.70;307.20
55365;DHT22;41245;45.384;20.390;2022-07-23T14:41:20;998.40;332.80
55365;DHT22;41245;45.384;20.390;2022-07-23T14:43:46;998.40;332.80
55365;DHT22;41245;45.384;20.390;2022-07-23T14:46:12;973.70;307.20
55365;DHT22;41245;45.384;20.390;2022-07-23T14:48:38;998.40;332.80
55365;DHT22;41245;45.384;20.390;2022-07-23T14:51:04;998.40;332.80
55365;DHT22;41245;45.384;20.390;2022-07-23T14:53:31;973.70;307.20
55365;DHT22;41245;45.384;20.390;2022-07-23T14:55:56;973.60;307.20
55365;DHT22;41245;45.384;20.390;2022-07-23T14:58:25;973.60;307.20
55365;DHT22;41245;45.384;20.390;2022-07-23T15:00:52;973.60;307.20
55365;DHT22;41245;45.384;20.390;2022-07-23T15:03:17;973.60;307.20
55365;DHT22;41245;45.384;20.390;2022-07-23T15:05:43;973.50;307.20
55365;DHT22;41245;45.384;20.390;2022-07-23T15:08:09;973.60;307.20
55365;DHT22;41245;45.384;20.390;2022-07-23T15:10:35;973.50;307.20
55365;DHT22;41245;45.384;20.390;2022-07-23T15:13:01;973.50;307.20
55365;DHT22;41245;45.384;20.390;2022-07-23T15:15:27;973.50;307.20
55365;DHT22;41245;45.384;20.390;2022-07-23T15:17:52;973.50;307.20
55365;DHT22;41245;45.384;20.390;2022-07-23T15:20:18;973.50;307.20
55365;DHT22;41245;45.384;20.390;2022-07-23T15:22:44;973.50;307.20
55365;DHT22;41245;45.384;20.390;2022-07-23T15:25:10;973.50;307.20
55365;DHT22;41245;45.384;20.390;2022-07-23T15:27:36;973.30;307.20
55365;DHT22;41245;45.384;20.390;2022-07-23T15:30:03;973.40;307.20
55365;DHT22;41245;45.384;20.390;2022-07-23T15:32:29;973.30;307.20
55365;DHT22;41245;45.384;20.390;2022-07-23T15:34:55;973.20;307.20
55365;DHT22;41245;45.384;20.390;2022-07-23T15:37:21;973.30;307.20
55365;DHT22;41245;45.384;20.390;2022-07-23T15:39:49;973.30;307.20
55365;DHT22;41245;45.384;20.390;2022-07-23T15:42:14;973.30;307.20
55365;DHT22;41245;45.384;20.390;2022-07-23T15:44:40;973.20;307.20
55365;DHT22;41245;45.384;20.390;2022-07-23T15:47:11;973.20;307.20
55365;DHT22;41245;45.384;20.390;2022-07-23T15:49:37;973.20;307.20
55365;DHT22;41245;45.384;20.390;2022-07-23T15:52:03;973.20;307.20
55365;DHT22;41245;45.384;20.390;2022-07-23T15:54:29;973.10;307.20
55365;DHT22;41245;45.384;20.390;2022-07-23T15:56:55;973.10;307.20
55365;DHT22;41245;45.384;20.390;2022-07-23T15:59:21;973.10;307.20
55365;DHT22;41245;45.384;20.390;2022-07-23T16:01:47;973.10;307.20
55365;DHT22;41245;45.384;20.390;2022-07-23T16:04:12;973.20;307.20
55365;DHT22;41245;45.384;20.390;2022-07-23T16:06:38;972.90;307.20
55365;DHT22;41245;45.384;20.390;2022-07-23T16:09:07;973.10;307.20
55365;DHT22;41245;45.384;20.390;2022-07-23T16:11:33;973.10;307.20
55365;DHT22;41245;45.384;20.390;2022-07-23T16:13:59;973.10;307.20
55365;DHT22;41245;45.384;20.390;2022-07-23T16:16:26;972.90;307.20
55365;DHT22;41245;45.384;20.390;2022-07-23T16:18:56;972.90;307.20
55365;DHT22;41245;45.384;20.390;2022-07-23T16:21:23;972.90;307.20
55365;DHT22;41245;45.384;20.390;2022-07-23T16:23:49;972.90;307.20
55365;DHT22;41245;45.384;20.390;2022-07-23T16:26:16;972.90;307.20
55365;DHT22;41245;45.384;20.390;2022-07-23T16:28:43;972.80;307.20
55365;DHT22;41245;45.384;20.390;2022-07-23T16:31:10;972.80;307.20
55365;DHT22;41245;45.384;20.390;2022-07-23T16:33:36;972.80;307.20
55365;DHT22;41245;45.384;20.390;2022-07-23T16:36:03;972.80;307.20
55365;DHT22;41245;45.384;20.390;2022-07-23T16:38:29;972.80;307.20
55365;DHT22;41245;45.384;20.390;2022-07-23T16:40:55;948.10;281.60
55365;DHT22;41245;45.384;20.390;2022-07-23T16:43:21;948.10;281.60
55365;DHT22;41245;45.384;20.390;2022-07-23T16:45:47;948.00;281.60
55365;DHT22;41245;45.384;20.390;2022-07-23T16:48:13;947.90;281.60
55365;DHT22;41245;45.384;20.390;2022-07-23T16:50:39;947.90;281.60
55365;DHT22;41245;45.384;20.390;2022-07-23T16:53:05;947.90;281.60
55365;DHT22;41245;45.384;20.390;2022-07-23T16:55:31;947.90;281.60
55365;DHT22;41245;45.384;20.390;2022-07-23T16:57:57;948.00;281.60
55365;DHT22;41245;45.384;20.390;2022-07-23T17:00:22;947.90;281.60
55365;DHT22;41245;45.384;20.390;2022-07-23T17:02:48;947.80;281.60
55365;DHT22;41245;45.384;20.390;2022-07-23T17:05:14;947.70;281.60